sensor_id;sensor_type;location;lat;lon;timestamp;temperature;humidity
67354;SHT30;54238;52.278;21.056;2022-09-17T00:04:41;12.71;67.61
67354;SHT30;54238;52.278;21.056;2022-09-17T00:07:10;12.72;67.50
67354;SHT30;54238;52.278;21.056;2022-09-17T00:09:37;12.74;67.55
67354;SHT30;54238;52.278;21.056;2022-09-17T00:12:14;12.75;67.51
67354;SHT30;54238;52.278;21.056;2022-09-17T00:14:41;12.78;67.38
67354;SHT30;54238;52.278;21.056;2022-09-17T00:17:07;12.81;67.33
67354;SHT30;54238;52.278;21.056;2022-09-17T00:19:37;12.83;67.25
67354;SHT30;54238;52.278;21.056;2022-09-17T00:22:09;12.85;67.21
67354;SHT30;54238;52.278;21.056;2022-09-17T00:24:36;12.87;67.07
67354;SHT30;54238;52.278;21.056;2022-09-17T00:27:08;12.87;66.98
67354;SHT30;54238;52.278;21.056;2022-09-17T00:29:37;12.88;66.90
67354;SHT30;54238;52.278;21.056;2022-09-17T00:32:09;12.89;66.87
67354;SHT30;54238;52.278;21.056;2022-09-17T00:34:43;12.89;66.82
67354;SHT30;54238;52.278;21.056;2022-09-17T00:37:14;12.88;66.82
67354;SHT30;54238;52.278;21.056;2022-09-17T00:39:41;12.86;66.79
67354;SHT30;54238;52.278;21.056;2022-09-17T00:42:11;12.84;66.83
67354;SHT30;54238;52.278;21.056;2022-09-17T00:44:50;12.83;66.82
67354;SHT30;54238;52.278;21.056;2022-09-17T00:50:35;12.79;66.92
67354;SHT30;54238;52.278;21.056;2022-09-17T00:53:07;12.79;66.89
67354;SHT30;54238;52.278;21.056;2022-09-17T00:55:40;12.80;66.75
67354;SHT30;54238;52.278;21.056;2022-09-17T00:58:17;12.82;66.64
67354;SHT30;54238;52.278;21.056;2022-09-17T01:00:50;12.82;66.62
67354;SHT30;54238;52.278;21.056;2022-09-17T01:03:19;12.82;66.55
67354;SHT30;54238;52.278;21.056;2022-09-17T01:05:48;12.82;66.46
67354;SHT30;54238;52.278;21.056;2022-09-17T01:14:37;12.78;66.43
67354;SHT30;54238;52.278;21.056;2022-09-17T01:26:32;12.71;66.50
67354;SHT30;54238;52.278;21.056;2022-09-17T01:34:52;12.65;66.70
67354;SHT30;54238;52.278;21.056;2022-09-17T01:37:40;12.64;66.74
67354;SHT30;54238;52.278;21.056;2022-09-17T01:40:28;12.63;66.72
67354;SHT30;54238;52.278;21.056;2022-09-17T01:43:21;12.62;66.79
67354;SHT30;54238;52.278;21.056;2022-09-17T01:45:54;12.59;66.88
67354;SHT30;54238;52.278;21.056;2022-09-17T01:48:39;12.57;66.95
67354;SHT30;54238;52.278;21.056;2022-09-17T01:51:19;12.53;66.95
67354;SHT30;54238;52.278;21.056;2022-09-17T02:00:12;12.45;67.17
67354;SHT30;54238;52.278;21.056;2022-09-17T02:02:52;12.43;67.26
67354;SHT30;54238;52.278;21.056;2022-09-17T02:08:07;12.38;67.37
67354;SHT30;54238;52.278;21.056;2022-09-17T02:10:45;12.35;67.38
67354;SHT30;54238;52.278;21.056;2022-09-17T02:13:26;12.34;67.30
67354;SHT30;54238;52.278;21.056;2022-09-17T02:16:12;12.32;67.31
67354;SHT30;54238;52.278;21.056;2022-09-17T02:24:10;12.28;67.24
67354;SHT30;54238;52.278;21.056;2022-09-17T02:27:03;12.26;67.19
67354;SHT30;54238;52.278;21.056;2022-09-17T02:29:47;12.24;67.27
67354;SHT30;54238;52.278;21.056;2022-09-17T02:32:17;12.21;67.22
67354;SHT30;54238;52.278;21.056;2022-09-17T02:34:48;12.19;67.28
67354;SHT30;54238;52.278;21.056;2022-09-17T02:37:18;12.17;67.26
67354;SHT30;54238;52.278;21.056;2022-09-17T02:39:45;12.15;67.28
67354;SHT30;54238;52.278;21.056;2022-09-17T02:42:16;12.14;67.24
67354;SHT30;54238;52.278;21.056;2022-09-17T02:48:28;12.09;67.30
67354;SHT30;54238;52.278;21.056;2022-09-17T02:51:43;12.06;67.29
67354;SHT30;54238;52.278;21.056;2022-09-17T02:55:01;12.04;67.31
67354;SHT30;54238;52.278;21.056;2022-09-17T02:57:42;12.01;67.33
67354;SHT30;54238;52.278;21.056;2022-09-17T03:00:25;12.00;67.36
67354;SHT30;54238;52.278;21.056;2022-09-17T03:03:07;11.98;67.40
67354;SHT30;54238;52.278;21.056;2022-09-17T03:05:42;11.98;67.40
67354;SHT30;54238;52.278;21.056;2022-09-17T03:08:15;11.96;67.45
67354;SHT30;54238;52.278;21.056;2022-09-17T03:10:45;11.95;67.51
67354;SHT30;54238;52.278;21.056;2022-09-17T03:13:15;11.94;67.54
67354;SHT30;54238;52.278;21.056;2022-09-17T03:15:45;11.93;67.57
67354;SHT30;54238;52.278;21.056;2022-09-17T03:18:12;11.93;67.59
67354;SHT30;54238;52.278;21.056;2022-09-17T03:20:39;11.93;67.57
67354;SHT30;54238;52.278;21.056;2022-09-17T03:23:06;11.92;67.63
67354;SHT30;54238;52.278;21.056;2022-09-17T03:25:35;11.90;67.66
67354;SHT30;54238;52.278;21.056;2022-09-17T03:28:01;11.90;67.70
67354;SHT30;54238;52.278;21.056;2022-09-17T03:30:29;11.90;67.69
67354;SHT30;54238;52.278;21.056;2022-09-17T03:33:01;11.88;67.71
67354;SHT30;54238;52.278;21.056;2022-09-17T03:35:30;11.88;67.66
67354;SHT30;54238;52.278;21.056;2022-09-17T03:37:58;11.87;67.77
67354;SHT30;54238;52.278;21.056;2022-09-17T03:40:30;11.86;67.70
67354;SHT30;54238;52.278;21.056;2022-09-17T03:42:59;11.85;67.78
67354;SHT30;54238;52.278;21.056;2022-09-17T03:45:31;11.85;67.72
67354;SHT30;54238;52.278;21.056;2022-09-17T03:48:00;11.84;67.85
67354;SHT30;54238;52.278;21.056;2022-09-17T03:50:31;11.81;67.88
67354;SHT30;54238;52.278;21.056;2022-09-17T03:53:06;11.80;67.98
67354;SHT30;54238;52.278;21.056;2022-09-17T03:55:39;11.77;68.09
67354;SHT30;54238;52.278;21.056;2022-09-17T03:58:08;11.75;68.21
67354;SHT30;54238;52.278;21.056;2022-09-17T04:00:36;11.70;68.43
67354;SHT30;54238;52.278;21.056;2022-09-17T04:03:10;11.68;68.58
67354;SHT30;54238;52.278;21.056;2022-09-17T04:05:40;11.64;68.76
67354;SHT30;54238;52.278;21.056;2022-09-17T04:08:07;11.62;68.78
67354;SHT30;54238;52.278;21.056;2022-09-17T04:10:36;11.59;68.92
67354;SHT30;54238;52.278;21.056;2022-09-17T04:13:06;11.57;68.98
67354;SHT30;54238;52.278;21.056;2022-09-17T04:15:40;11.57;68.93
67354;SHT30;54238;52.278;21.056;2022-09-17T04:18:11;11.56;69.06
67354;SHT30;54238;52.278;21.056;2022-09-17T04:20:41;11.55;69.06
67354;SHT30;54238;52.278;21.056;2022-09-17T04:23:11;11.55;69.07
67354;SHT30;54238;52.278;21.056;2022-09-17T04:25:43;11.56;69.17
67354;SHT30;54238;52.278;21.056;2022-09-17T04:28:13;11.54;69.23
67354;SHT30;54238;52.278;21.056;2022-09-17T04:30:48;11.54;69.23
67354;SHT30;54238;52.278;21.056;2022-09-17T04:33:15;11.53;69.27
67354;SHT30;54238;52.278;21.056;2022-09-17T04:35:45;11.53;69.29
67354;SHT30;54238;52.278;21.056;2022-09-17T04:38:12;11.54;69.29
67354;SHT30;54238;52.278;21.056;2022-09-17T04:40:43;11.53;69.38
67354;SHT30;54238;52.278;21.056;2022-09-17T04:43:16;11.53;69.40
67354;SHT30;54238;52.278;21.056;2022-09-17T04:45:46;11.54;69.29
67354;SHT30;54238;52.278;21.056;2022-09-17T04:48:18;11.57;69.34
67354;SHT30;54238;52.278;21.056;2022-09-17T04:50:51;11.56;69.38
67354;SHT30;54238;52.278;21.056;2022-09-17T04:53:21;11.57;69.28
67354;SHT30;54238;52.278;21.056;2022-09-17T04:55:52;11.59;69.32
67354;SHT30;54238;52.278;21.056;2022-09-17T04:58:19;11.60;69.30
67354;SHT30;54238;52.278;21.056;2022-09-17T05:00:46;11.60;69.28
67354;SHT30;54238;52.278;21.056;2022-09-17T05:03:19;11.61;69.31
67354;SHT30;54238;52.278;21.056;2022-09-17T05:05:50;11.63;69.26
67354;SHT30;54238;52.278;21.056;2022-09-17T05:08:20;11.66;69.27
67354;SHT30;54238;52.278;21.056;2022-09-17T05:10:49;11.66;69.29
67354;SHT30;54238;52.278;21.056;2022-09-17T05:13:22;11.67;69.35
67354;SHT30;54238;52.278;21.056;2022-09-17T05:15:52;11.67;69.40
67354;SHT30;54238;52.278;21.056;2022-09-17T05:18:22;11.69;69.40
67354;SHT30;54238;52.278;21.056;2022-09-17T05:20:54;11.70;69.51
67354;SHT30;54238;52.278;21.056;2022-09-17T05:23:21;11.71;69.52
67354;SHT30;54238;52.278;21.056;2022-09-17T05:25:50;11.73;69.50
67354;SHT30;54238;52.278;21.056;2022-09-17T05:28:18;11.73;69.48
67354;SHT30;54238;52.278;21.056;2022-09-17T05:30:45;11.76;69.45
67354;SHT30;54238;52.278;21.056;2022-09-17T05:33:12;11.78;69.38
67354;SHT30;54238;52.278;21.056;2022-09-17T05:35:46;11.79;69.45
67354;SHT30;54238;52.278;21.056;2022-09-17T05:38:18;11.82;69.45
67354;SHT30;54238;52.278;21.056;2022-09-17T05:40:50;11.88;69.25
67354;SHT30;54238;52.278;21.056;2022-09-17T05:43:19;11.94;69.14
67354;SHT30;54238;52.278;21.056;2022-09-17T05:45:48;11.99;69.06
67354;SHT30;54238;52.278;21.056;2022-09-17T05:48:21;12.04;68.88
67354;SHT30;54238;52.278;21.056;2022-09-17T05:50:53;12.09;68.72
67354;SHT30;54238;52.278;21.056;2022-09-17T05:53:23;12.13;68.49
67354;SHT30;54238;52.278;21.056;2022-09-17T05:55:50;12.15;68.52
67354;SHT30;54238;52.278;21.056;2022-09-17T05:58:20;12.21;68.29
67354;SHT30;54238;52.278;21.056;2022-09-17T06:00:49;12.27;68.10
67354;SHT30;54238;52.278;21.056;2022-09-17T06:03:19;12.33;67.99
67354;SHT30;54238;52.278;21.056;2022-09-17T06:05:55;12.40;67.85
67354;SHT30;54238;52.278;21.056;2022-09-17T06:08:26;12.46;67.72
67354;SHT30;54238;52.278;21.056;2022-09-17T06:10:54;12.53;67.21
67354;SHT30;54238;52.278;21.056;2022-09-17T06:13:26;12.59;67.06
67354;SHT30;54238;52.278;21.056;2022-09-17T06:15:55;12.61;66.80
67354;SHT30;54238;52.278;21.056;2022-09-17T06:18:29;12.65;66.54
67354;SHT30;54238;52.278;21.056;2022-09-17T06:21:02;12.73;66.60
67354;SHT30;54238;52.278;21.056;2022-09-17T06:23:31;12.80;66.13
67354;SHT30;54238;52.278;21.056;2022-09-17T06:26:00;12.85;65.90
67354;SHT30;54238;52.278;21.056;2022-09-17T06:28:31;12.88;65.80
67354;SHT30;54238;52.278;21.056;2022-09-17T06:31:02;12.92;65.78
67354;SHT30;54238;52.278;21.056;2022-09-17T06:33:34;12.96;65.88
67354;SHT30;54238;52.278;21.056;2022-09-17T06:36:03;13.01;65.70
67354;SHT30;54238;52.278;21.056;2022-09-17T06:38:37;13.04;65.49
67354;SHT30;54238;52.278;21.056;2022-09-17T06:41:11;13.10;65.55
67354;SHT30;54238;52.278;21.056;2022-09-17T06:43:42;13.18;65.43
67354;SHT30;54238;52.278;21.056;2022-09-17T06:46:10;13.24;65.29
67354;SHT30;54238;52.278;21.056;2022-09-17T06:48:42;13.32;65.00
67354;SHT30;54238;52.278;21.056;2022-09-17T06:51:09;13.36;64.72
67354;SHT30;54238;52.278;21.056;2022-09-17T06:53:40;13.40;64.56
67354;SHT30;54238;52.278;21.056;2022-09-17T06:56:08;13.43;64.30
67354;SHT30;54238;52.278;21.056;2022-09-17T06:58:35;13.45;64.27
67354;SHT30;54238;52.278;21.056;2022-09-17T07:01:07;13.50;64.43
67354;SHT30;54238;52.278;21.056;2022-09-17T07:03:42;13.58;64.33
67354;SHT30;54238;52.278;21.056;2022-09-17T07:06:11;13.63;64.12
67354;SHT30;54238;52.278;21.056;2022-09-17T07:08:43;13.67;64.18
67354;SHT30;54238;52.278;21.056;2022-09-17T07:11:13;13.73;64.13
67354;SHT30;54238;52.278;21.056;2022-09-17T07:13:41;13.86;64.17
67354;SHT30;54238;52.278;21.056;2022-09-17T07:16:10;13.94;63.72
67354;SHT30;54238;52.278;21.056;2022-09-17T07:18:45;13.96;63.74
67354;SHT30;54238;52.278;21.056;2022-09-17T07:21:14;14.01;63.73
67354;SHT30;54238;52.278;21.056;2022-09-17T07:23:43;14.06;63.68
67354;SHT30;54238;52.278;21.056;2022-09-17T07:26:13;14.09;63.69
67354;SHT30;54238;52.278;21.056;2022-09-17T07:28:46;14.11;63.37
67354;SHT30;54238;52.278;21.056;2022-09-17T07:31:13;14.06;63.49
67354;SHT30;54238;52.278;21.056;2022-09-17T07:33:40;13.99;63.55
67354;SHT30;54238;52.278;21.056;2022-09-17T07:36:12;13.95;63.65
67354;SHT30;54238;52.278;21.056;2022-09-17T07:38:43;13.89;63.90
67354;SHT30;54238;52.278;21.056;2022-09-17T07:41:13;13.81;64.16
67354;SHT30;54238;52.278;21.056;2022-09-17T07:43:43;13.78;64.48
67354;SHT30;54238;52.278;21.056;2022-09-17T07:46:17;13.80;64.73
67354;SHT30;54238;52.278;21.056;2022-09-17T07:48:50;13.74;64.88
67354;SHT30;54238;52.278;21.056;2022-09-17T07:51:20;13.68;65.19
67354;SHT30;54238;52.278;21.056;2022-09-17T07:53:54;13.62;65.39
67354;SHT30;54238;52.278;21.056;2022-09-17T07:56:31;13.64;65.48
67354;SHT30;54238;52.278;21.056;2022-09-17T07:58:58;13.68;65.57
67354;SHT30;54238;52.278;21.056;2022-09-17T08:01:30;13.66;65.58
67354;SHT30;54238;52.278;21.056;2022-09-17T08:04:07;13.66;65.63
67354;SHT30;54238;52.278;21.056;2022-09-17T08:06:35;13.67;65.80
67354;SHT30;54238;52.278;21.056;2022-09-17T08:09:06;13.66;65.80
67354;SHT30;54238;52.278;21.056;2022-09-17T08:11:36;13.65;65.91
67354;SHT30;54238;52.278;21.056;2022-09-17T08:14:03;13.61;66.04
67354;SHT30;54238;52.278;21.056;2022-09-17T08:16:32;13.63;66.14
67354;SHT30;54238;52.278;21.056;2022-09-17T08:19:01;13.64;66.26
67354;SHT30;54238;52.278;21.056;2022-09-17T08:21:28;13.56;66.48
67354;SHT30;54238;52.278;21.056;2022-09-17T08:23:58;13.50;66.76
67354;SHT30;54238;52.278;21.056;2022-09-17T08:26:27;13.45;66.88
67354;SHT30;54238;52.278;21.056;2022-09-17T08:28:57;13.45;67.06
67354;SHT30;54238;52.278;21.056;2022-09-17T08:31:29;13.53;66.95
67354;SHT30;54238;52.278;21.056;2022-09-17T08:33:58;13.64;66.81
67354;SHT30;54238;52.278;21.056;2022-09-17T08:36:36;13.72;66.52
67354;SHT30;54238;52.278;21.056;2022-09-17T08:39:05;13.73;66.32
67354;SHT30;54238;52.278;21.056;2022-09-17T08:44:25;13.73;66.12
67354;SHT30;54238;52.278;21.056;2022-09-17T08:47:07;13.72;66.37
67354;SHT30;54238;52.278;21.056;2022-09-17T08:49:54;13.73;66.33
67354;SHT30;54238;52.278;21.056;2022-09-17T08:56:04;13.73;66.12
67354;SHT30;54238;52.278;21.056;2022-09-17T09:02:11;14.02;65.72
67354;SHT30;54238;52.278;21.056;2022-09-17T09:08:03;14.58;64.20
67354;SHT30;54238;52.278;21.056;2022-09-17T09:10:48;14.70;63.34
67354;SHT30;54238;52.278;21.056;2022-09-17T09:13:22;14.76;63.20
67354;SHT30;54238;52.278;21.056;2022-09-17T09:15:58;14.76;62.65
67354;SHT30;54238;52.278;21.056;2022-09-17T09:18:34;14.68;62.52
67354;SHT30;54238;52.278;21.056;2022-09-17T09:24:00;14.60;62.98
67354;SHT30;54238;52.278;21.056;2022-09-17T09:26:43;14.55;63.17
67354;SHT30;54238;52.278;21.056;2022-09-17T09:40:42;14.48;63.60
67354;SHT30;54238;52.278;21.056;2022-09-17T09:43:24;14.49;63.70
67354;SHT30;54238;52.278;21.056;2022-09-17T09:57:45;14.41;64.91
67354;SHT30;54238;52.278;21.056;2022-09-17T10:02:52;14.38;64.64
67354;SHT30;54238;52.278;21.056;2022-09-17T10:05:29;14.34;64.77
67354;SHT30;54238;52.278;21.056;2022-09-17T10:07:56;14.29;64.95
67354;SHT30;54238;52.278;21.056;2022-09-17T10:10:26;14.20;65.65
67354;SHT30;54238;52.278;21.056;2022-09-17T10:13:03;14.08;66.08
67354;SHT30;54238;52.278;21.056;2022-09-17T10:15:35;14.09;66.50
67354;SHT30;54238;52.278;21.056;2022-09-17T10:18:09;14.18;66.69
67354;SHT30;54238;52.278;21.056;2022-09-17T10:20:55;14.28;66.94
67354;SHT30;54238;52.278;21.056;2022-09-17T10:23:29;14.36;67.01
67354;SHT30;54238;52.278;21.056;2022-09-17T10:26:06;14.42;67.23
67354;SHT30;54238;52.278;21.056;2022-09-17T10:28:50;14.47;67.08
67354;SHT30;54238;52.278;21.056;2022-09-17T10:31:22;14.51;66.99
67354;SHT30;54238;52.278;21.056;2022-09-17T10:36:37;14.61;66.79
67354;SHT30;54238;52.278;21.056;2022-09-17T10:42:12;14.70;66.27
67354;SHT30;54238;52.278;21.056;2022-09-17T10:50:03;14.71;65.52
67354;SHT30;54238;52.278;21.056;2022-09-17T10:52:49;14.87;64.21
67354;SHT30;54238;52.278;21.056;2022-09-17T10:55:36;15.02;63.50
67354;SHT30;54238;52.278;21.056;2022-09-17T10:58:23;15.13;62.67
67354;SHT30;54238;52.278;21.056;2022-09-17T11:08:00;15.22;62.23
67354;SHT30;54238;52.278;21.056;2022-09-17T11:17:08;15.21;62.09
67354;SHT30;54238;52.278;21.056;2022-09-17T11:25:41;15.78;61.80
67354;SHT30;54238;52.278;21.056;2022-09-17T11:28:38;16.33;60.32
67354;SHT30;54238;52.278;21.056;2022-09-17T11:37:10;16.96;57.66
67354;SHT30;54238;52.278;21.056;2022-09-17T11:45:23;18.83;52.74
67354;SHT30;54238;52.278;21.056;2022-09-17T11:48:03;19.15;52.32
67354;SHT30;54238;52.278;21.056;2022-09-17T11:51:03;19.37;50.78
67354;SHT30;54238;52.278;21.056;2022-09-17T11:53:43;19.56;50.64
67354;SHT30;54238;52.278;21.056;2022-09-17T11:56:26;19.68;50.16
67354;SHT30;54238;52.278;21.056;2022-09-17T12:01:44;19.60;49.78
67354;SHT30;54238;52.278;21.056;2022-09-17T12:12:42;17.76;52.47
67354;SHT30;54238;52.278;21.056;2022-09-17T12:15:25;17.50;53.56
67354;SHT30;54238;52.278;21.056;2022-09-17T12:21:10;16.97;55.24
67354;SHT30;54238;52.278;21.056;2022-09-17T12:24:03;16.75;55.90
67354;SHT30;54238;52.278;21.056;2022-09-17T12:45:09;15.99;58.52
67354;SHT30;54238;52.278;21.056;2022-09-17T13:00:12;15.78;59.62
67354;SHT30;54238;52.278;21.056;2022-09-17T13:02:46;15.76;59.89
67354;SHT30;54238;52.278;21.056;2022-09-17T13:11:59;15.73;60.63
67354;SHT30;54238;52.278;21.056;2022-09-17T13:18:02;15.82;61.01
67354;SHT30;54238;52.278;21.056;2022-09-17T13:24:16;15.84;60.88
67354;SHT30;54238;52.278;21.056;2022-09-17T13:26:51;15.85;61.01
67354;SHT30;54238;52.278;21.056;2022-09-17T13:30:03;15.87;60.90
67354;SHT30;54238;52.278;21.056;2022-09-17T13:38:01;15.86;61.15
67354;SHT30;54238;52.278;21.056;2022-09-17T13:40:36;15.88;60.90
67354;SHT30;54238;52.278;21.056;2022-09-17T13:43:09;15.91;61.00
67354;SHT30;54238;52.278;21.056;2022-09-17T13:48:27;15.83;60.08
67354;SHT30;54238;52.278;21.056;2022-09-17T13:53:59;15.69;60.30
67354;SHT30;54238;52.278;21.056;2022-09-17T13:59:17;15.65;60.22
67354;SHT30;54238;52.278;21.056;2022-09-17T14:01:55;15.63;60.48
67354;SHT30;54238;52.278;21.056;2022-09-17T14:04:47;15.64;60.50
67354;SHT30;54238;52.278;21.056;2022-09-17T14:09:55;15.62;60.71
67354;SHT30;54238;52.278;21.056;2022-09-17T14:21:10;15.65;61.06
67354;SHT30;54238;52.278;21.056;2022-09-17T14:23:51;15.66;61.23
67354;SHT30;54238;52.278;21.056;2022-09-17T14:26:39;15.67;61.46
67354;SHT30;54238;52.278;21.056;2022-09-17T14:32:16;15.74;61.67
67354;SHT30;54238;52.278;21.056;2022-09-17T14:34:55;15.78;61.62
67354;SHT30;54238;52.278;21.056;2022-09-17T14:37:26;15.80;61.69
67354;SHT30;54238;52.278;21.056;2022-09-17T14:39:56;15.81;61.71
67354;SHT30;54238;52.278;21.056;2022-09-17T14:42:29;15.83;61.73
67354;SHT30;54238;52.278;21.056;2022-09-17T14:45:04;15.88;61.74
67354;SHT30;54238;52.278;21.056;2022-09-17T14:47:42;15.96;61.61
67354;SHT30;54238;52.278;21.056;2022-09-17T14:50:22;15.99;61.50
67354;SHT30;54238;52.278;21.056;2022-09-17T14:52:54;16.00;61.34
67354;SHT30;54238;52.278;21.056;2022-09-17T14:55:24;16.05;61.42
67354;SHT30;54238;52.278;21.056;2022-09-17T14:58:02;16.20;61.10
67354;SHT30;54238;52.278;21.056;2022-09-17T15:00:32;16.32;60.84
67354;SHT30;54238;52.278;21.056;2022-09-17T15:03:05;16.45;60.38
67354;SHT30;54238;52.278;21.056;2022-09-17T15:05:33;16.70;59.91
67354;SHT30;54238;52.278;21.056;2022-09-17T15:10:56;16.98;58.62
67354;SHT30;54238;52.278;21.056;2022-09-17T15:13:29;17.00;58.27
67354;SHT30;54238;52.278;21.056;2022-09-17T15:16:22;17.05;58.02
67354;SHT30;54238;52.278;21.056;2022-09-17T15:18:53;17.24;57.94
67354;SHT30;54238;52.278;21.056;2022-09-17T15:24:12;17.37;57.11
67354;SHT30;54238;52.278;21.056;2022-09-17T15:26:54;17.19;57.17
67354;SHT30;54238;52.278;21.056;2022-09-17T15:29:29;16.96;57.71
67354;SHT30;54238;52.278;21.056;2022-09-17T15:32:01;16.74;58.38
67354;SHT30;54238;52.278;21.056;2022-09-17T15:34:32;16.52;59.08
67354;SHT30;54238;52.278;21.056;2022-09-17T15:39:46;16.14;60.13
67354;SHT30;54238;52.278;21.056;2022-09-17T15:42:24;16.03;60.59
67354;SHT30;54238;52.278;21.056;2022-09-17T15:45:07;15.94;61.06
67354;SHT30;54238;52.278;21.056;2022-09-17T16:08:52;15.72;62.18
67354;SHT30;54238;52.278;21.056;2022-09-17T16:13:58;15.69;62.39
67354;SHT30;54238;52.278;21.056;2022-09-17T16:19:00;15.61;62.72
67354;SHT30;54238;52.278;21.056;2022-09-17T16:21:32;15.58;62.92
67354;SHT30;54238;52.278;21.056;2022-09-17T16:24:01;15.53;62.98
67354;SHT30;54238;52.278;21.056;2022-09-17T16:26:32;15.49;63.21
67354;SHT30;54238;52.278;21.056;2022-09-17T16:29:02;15.45;63.40
67354;SHT30;54238;52.278;21.056;2022-09-17T16:31:39;15.40;63.66
67354;SHT30;54238;52.278;21.056;2022-09-17T16:34:10;15.35;63.88
67354;SHT30;54238;52.278;21.056;2022-09-17T16:36:41;15.30;64.11
67354;SHT30;54238;52.278;21.056;2022-09-17T16:39:15;15.26;64.33
67354;SHT30;54238;52.278;21.056;2022-09-17T16:41:44;15.21;64.68
67354;SHT30;54238;52.278;21.056;2022-09-17T16:44:11;15.16;64.80
67354;SHT30;54238;52.278;21.056;2022-09-17T16:46:40;15.11;65.02
67354;SHT30;54238;52.278;21.056;2022-09-17T16:49:07;15.07;65.12
67354;SHT30;54238;52.278;21.056;2022-09-17T16:51:39;15.05;65.29
67354;SHT30;54238;52.278;21.056;2022-09-17T16:54:08;15.02;65.41
67354;SHT30;54238;52.278;21.056;2022-09-17T16:56:37;14.98;65.56
67354;SHT30;54238;52.278;21.056;2022-09-17T16:59:09;14.95;65.82
67354;SHT30;54238;52.278;21.056;2022-09-17T17:01:38;14.90;65.93
67354;SHT30;54238;52.278;21.056;2022-09-17T17:04:10;14.86;66.02
67354;SHT30;54238;52.278;21.056;2022-09-17T17:06:37;14.84;66.14
67354;SHT30;54238;52.278;21.056;2022-09-17T17:09:08;14.81;66.24
67354;SHT30;54238;52.278;21.056;2022-09-17T17:11:37;14.77;66.30
67354;SHT30;54238;52.278;21.056;2022-09-17T17:14:07;14.74;66.45
67354;SHT30;54238;52.278;21.056;2022-09-17T17:16:36;14.72;66.53
67354;SHT30;54238;52.278;21.056;2022-09-17T17:19:11;14.67;66.67
67354;SHT30;54238;52.278;21.056;2022-09-17T17:21:38;14.64;66.79
67354;SHT30;54238;52.278;21.056;2022-09-17T17:24:07;14.60;66.91
67354;SHT30;54238;52.278;21.056;2022-09-17T17:26:35;14.57;67.03
67354;SHT30;54238;52.278;21.056;2022-09-17T17:29:02;14.55;67.13
67354;SHT30;54238;52.278;21.056;2022-09-17T17:31:33;14.52;67.17
67354;SHT30;54238;52.278;21.056;2022-09-17T17:34:05;14.49;67.30
67354;SHT30;54238;52.278;21.056;2022-09-17T17:36:38;14.49;67.36
67354;SHT30;54238;52.278;21.056;2022-09-17T17:39:05;14.46;67.42
67354;SHT30;54238;52.278;21.056;2022-09-17T17:41:33;14.44;67.50
67354;SHT30;54238;52.278;21.056;2022-09-17T17:44:07;14.43;67.56
67354;SHT30;54238;52.278;21.056;2022-09-17T17:46:38;14.40;67.66
67354;SHT30;54238;52.278;21.056;2022-09-17T17:49:12;14.38;67.73
67354;SHT30;54238;52.278;21.056;2022-09-17T17:51:39;14.38;67.83
67354;SHT30;54238;52.278;21.056;2022-09-17T17:54:06;14.36;67.93
67354;SHT30;54238;52.278;21.056;2022-09-17T17:56:35;14.35;67.97
67354;SHT30;54238;52.278;21.056;2022-09-17T17:59:05;14.34;68.12
67354;SHT30;54238;52.278;21.056;2022-09-17T18:01:34;14.32;68.18
67354;SHT30;54238;52.278;21.056;2022-09-17T18:04:05;14.30;68.33
67354;SHT30;54238;52.278;21.056;2022-09-17T18:06:40;14.28;68.37
67354;SHT30;54238;52.278;21.056;2022-09-17T18:09:16;14.28;68.51
67354;SHT30;54238;52.278;21.056;2022-09-17T18:11:45;14.25;68.62
67354;SHT30;54238;52.278;21.056;2022-09-17T18:14:15;14.23;68.71
67354;SHT30;54238;52.278;21.056;2022-09-17T18:16:44;14.21;68.89
67354;SHT30;54238;52.278;21.056;2022-09-17T18:19:11;14.18;69.13
67354;SHT30;54238;52.278;21.056;2022-09-17T18:21:42;14.15;69.41
67354;SHT30;54238;52.278;21.056;2022-09-17T18:24:14;14.13;69.53
67354;SHT30;54238;52.278;21.056;2022-09-17T18:26:45;14.10;69.62
67354;SHT30;54238;52.278;21.056;2022-09-17T18:29:17;14.10;69.80
67354;SHT30;54238;52.278;21.056;2022-09-17T18:31:46;14.08;70.07
67354;SHT30;54238;52.278;21.056;2022-09-17T18:34:14;14.07;70.03
67354;SHT30;54238;52.278;21.056;2022-09-17T18:36:45;14.07;70.21
67354;SHT30;54238;52.278;21.056;2022-09-17T18:39:17;14.06;70.24
67354;SHT30;54238;52.278;21.056;2022-09-17T18:41:52;14.07;70.37
67354;SHT30;54238;52.278;21.056;2022-09-17T18:44:18;14.06;70.37
67354;SHT30;54238;52.278;21.056;2022-09-17T18:46:48;14.05;70.39
67354;SHT30;54238;52.278;21.056;2022-09-17T18:49:20;14.05;70.64
67354;SHT30;54238;52.278;21.056;2022-09-17T18:51:49;14.04;70.69
67354;SHT30;54238;52.278;21.056;2022-09-17T18:54:23;14.02;70.81
67354;SHT30;54238;52.278;21.056;2022-09-17T18:56:50;14.00;71.01
67354;SHT30;54238;52.278;21.056;2022-09-17T18:59:18;13.99;70.97
67354;SHT30;54238;52.278;21.056;2022-09-17T19:01:47;13.98;70.99
67354;SHT30;54238;52.278;21.056;2022-09-17T19:04:16;13.98;71.05
67354;SHT30;54238;52.278;21.056;2022-09-17T19:06:46;13.97;71.20
67354;SHT30;54238;52.278;21.056;2022-09-17T19:09:18;13.96;71.22
67354;SHT30;54238;52.278;21.056;2022-09-17T19:11:48;13.95;71.29
67354;SHT30;54238;52.278;21.056;2022-09-17T19:14:37;13.93;71.32
67354;SHT30;54238;52.278;21.056;2022-09-17T19:17:23;13.91;71.41
67354;SHT30;54238;52.278;21.056;2022-09-17T19:19:50;13.89;71.56
67354;SHT30;54238;52.278;21.056;2022-09-17T19:22:37;13.86;71.60
67354;SHT30;54238;52.278;21.056;2022-09-17T19:25:26;13.86;71.61
67354;SHT30;54238;52.278;21.056;2022-09-17T19:27:57;13.85;71.68
67354;SHT30;54238;52.278;21.056;2022-09-17T19:30:27;13.83;71.71
67354;SHT30;54238;52.278;21.056;2022-09-17T19:32:57;13.82;71.70
67354;SHT30;54238;52.278;21.056;2022-09-17T19:35:27;13.84;71.70
67354;SHT30;54238;52.278;21.056;2022-09-17T19:37:57;13.85;71.70
67354;SHT30;54238;52.278;21.056;2022-09-17T19:40:27;13.87;71.70
67354;SHT30;54238;52.278;21.056;2022-09-17T19:42:54;13.87;71.76
67354;SHT30;54238;52.278;21.056;2022-09-17T19:45:26;13.88;71.70
67354;SHT30;54238;52.278;21.056;2022-09-17T19:47:54;13.89;71.79
67354;SHT30;54238;52.278;21.056;2022-09-17T19:50:29;13.88;71.81
67354;SHT30;54238;52.278;21.056;2022-09-17T19:52:57;13.89;71.90
67354;SHT30;54238;52.278;21.056;2022-09-17T19:55:29;13.90;71.86
67354;SHT30;54238;52.278;21.056;2022-09-17T19:57:56;13.90;71.90
67354;SHT30;54238;52.278;21.056;2022-09-17T20:00:29;13.90;71.84
67354;SHT30;54238;52.278;21.056;2022-09-17T20:02:59;13.91;71.86